Grover, South Carolina
Current Conditions -  °F | °C
As of 2:55 PM on Wednesday 17 Dec 2014 (Local Time) from KRBW Reporting Station
Clear Clear  
Wind Chill: 64°   Ceiling: Unl
Heat Index: 64°   Visibility: 10mi
Dew Point: 34°   Wind: 5mph
Humidity: 32%   Direction: 290°WNW
Pressure: 30.08"   Gusts: NA
Location:  33.11°N, 80.59°W
Report Text: KRBW 171955Z AUTO 29004KT 10SM CLR 18/01 A3008 RMK AO2
Loading
Personal Weather Stations






























Interactive Weather Map New forecast layout! Learn more

10-Day Weather Forecast

Advertisements
Track Severe Weather on mobile